Terminal Aerodrome Forecast
Issued by NWS Duluth, MN

Home | Current Version | Previous Version | Text Only | Print | Product List | Glossary On
Versions: 1 2 3 4 5 6 7 8 9 10 11 12 13 14 15 16 17 18 19 20 21
000
FTUS43 KDLH 251100
TAFDLH
TAF
KDLH 251120Z 2512/2612 32013KT P6SM -SN SCT007
     FM251400 31009KT P6SM SCT040
     FM251900 22005KT P6SM SCT025 BKN040
     FM260200 16005KT P6SM BKN060
     FM260800 14004KT P6SM -SN SCT020 BKN035=

USA.gov is the U.S. government's official web portal to all federal, state and local government web resources and services.